• Join FlightAware (Why Join?)
  • Login
  • US Flag 
09:55PM EST


 

Airport Tracker/Info


-or-


 

Live Flight TrackerFlight Track Log ✈ N385C ✈ 11-Mar-2014 ✈ I40 - KENW

Flight Track Log - Related Links

Times and Time Zones

All times are in EDT time to prevent confusion due to time zone crossing. See the N385C flight status page for this flight to view local times or setup timezone preferences in your user account.

Time Position Orientation Groundspeed Altitude Reporting Facility
EDT Latitude Longitude Course Direction KTS MPH feet Rate Location/Type
04:13PM 40.3444 -82.0417 289° West 120 138 5,600  Level Cleveland Center
04:14PM 40.3564 -82.0883 289° West 127 146 6,000 214 Climbing Cleveland Center
04:15PM 40.3683 -82.1372 288° West 149 171 6,000  Level Indianapolis Center
04:15PM 40.3708 -82.1461 290° West 137 158 6,000 100 Level Indianapolis Center
04:16PM 40.3825 -82.1914 289° West 157 181 6,100  Climbing Indianapolis Center
04:16PM 40.3844 -82.2042 281° West 154 177 6,000 -98 Descending Indianapolis Center
04:17PM 40.3947 -82.2453 288° West 159 183 6,000  Level Indianapolis Center
04:17PM 40.3986 -82.2581 292° West 159 183 6,000  Level Indianapolis Center
04:18PM 40.4106 -82.3028 289° West 161 185 6,000  Level Indianapolis Center
04:18PM 40.4136 -82.3128 292° West 159 183 6,000  Level Indianapolis Center
04:18PM 40.4208 -82.3422 288° West 159 183 6,000  Level Indianapolis Center
04:19PM 40.4336 -82.3978 287° West 159 183 6,000  Level Indianapolis Center
04:20PM 40.4486 -82.4533 290° West 159 183 6,000  Level Indianapolis Center
04:21PM 40.4619 -82.5117 287° West 160 184 6,000  Level Indianapolis Center
04:23PM 40.4753 -82.5681 287° West 160 184 6,000  Level Indianapolis Center
04:24PM 40.4919 -82.6344 288° West 160 184 6,000  Level Indianapolis Center
04:25PM 40.5061 -82.6922 288° West 161 185 6,000  Level Indianapolis Center
04:26PM 40.5194 -82.7503 287° West 161 185 6,000 48 Level Indianapolis Center
04:27PM 40.5339 -82.8064 289° West 161 185 6,100  Climbing Indianapolis Center
04:28PM 40.5472 -82.8644 287° West 162 186 6,000 -48 Descending Indianapolis Center
04:29PM 40.5614 -82.9214 288° West 162 186 6,000  Level Indianapolis Center
04:30PM 40.5747 -82.9792 287° West 162 186 6,000  Level Indianapolis Center
04:31PM 40.5903 -83.0469 287° West 162 186 6,000  Level Indianapolis Center
04:32PM 40.6050 -83.1039 289° West 163 188 6,000  Level Indianapolis Center
04:33PM 40.6186 -83.1622 287° West 163 188 6,000  Level Indianapolis Center
04:34PM 40.6333 -83.2231 288° West 163 188 6,000  Level Indianapolis Center
04:35PM 40.6464 -83.2797 287° West 163 188 6,000  Level Indianapolis Center
04:36PM 40.6597 -83.3364 287° West 163 188 6,000  Level Indianapolis Center
04:37PM 40.6744 -83.3936 289° West 163 188 6,000  Level Indianapolis Center
04:38PM 40.6875 -83.4517 287° West 164 189 6,000  Level Indianapolis Center
04:39PM 40.7003 -83.5094 286° West 164 189 6,000  Level Indianapolis Center
04:40PM 40.7164 -83.5772 287° West 164 189 6,000  Level Indianapolis Center
04:41PM 40.7297 -83.6336 287° West 163 188 6,000  Level Indianapolis Center
04:42PM 40.7422 -83.6894 286° West 163 188 6,000  Level Indianapolis Center
04:43PM 40.7553 -83.7450 287° West 162 186 6,000  Level Indianapolis Center
04:44PM 40.7683 -83.8031 287° West 163 188 6,000  Level Indianapolis Center
04:45PM 40.7833 -83.8611 289° West 162 186 6,000  Level Indianapolis Center
04:46PM 40.7983 -83.9303 286° West 162 186 6,000  Level Indianapolis Center
04:47PM 40.8094 -83.9847 285° West 162 186 6,000  Level Indianapolis Center
04:48PM 40.8244 -84.0469 288° West 163 188 6,000  Level Indianapolis Center
04:49PM 40.8364 -84.0967 288° West 163 188 6,000  Level Indianapolis Center
04:50PM 40.8489 -84.1539 286° West 163 188 6,000  Level Indianapolis Center
04:51PM 40.8642 -84.2214 287° West 163 188 6,000  Level Indianapolis Center
04:53PM 40.8794 -84.2825 288° West 162 186 6,000  Level Chicago Center
04:54PM 40.8933 -84.3403 288° West 164 189 6,000  Level Chicago Center
04:55PM 40.9069 -84.3986 287° West 165 190 6,000  Level Chicago Center
04:56PM 40.9186 -84.4578 285° West 166 191 6,000  Level Chicago Center
04:57PM 40.9317 -84.5153 287° West 165 190 6,000  Level Chicago Center
04:58PM 40.9442 -84.5728 286° West 164 189 6,000  Level Chicago Center
04:59PM 40.9594 -84.6408 287° West 162 186 6,000  Level Chicago Center
05:00PM 40.9722 -84.6975 287° West 162 186 6,000  Level Chicago Center
05:01PM 40.9853 -84.7556 287° West 163 188 6,000 48 Level Chicago Center
05:02PM 40.9975 -84.8114 286° West 161 185 6,100 48 Climbing Chicago Center
05:03PM 41.0100 -84.8678 286° West 161 185 6,100  Level Chicago Center
05:04PM 41.0225 -84.9233 287° West 159 183 6,100  Level Chicago Center
05:05PM 41.0361 -84.9911 285° West 159 183 6,100  Level Chicago Center
05:06PM 41.0494 -85.0475 287° West 160 184 6,100  Level Chicago Center
05:07PM 41.0617 -85.1069 285° West 163 188 6,100  Level Chicago Center
05:08PM 41.0744 -85.1647 286° West 163 188 6,100  Level Chicago Center
05:09PM 41.0867 -85.2236 285° West 164 189 6,100  Level Chicago Center
05:10PM 41.0992 -85.2806 286° West 163 188 6,100  Level Chicago Center
05:11PM 41.1144 -85.3514 286° West 164 189 6,100  Level Chicago Center
05:12PM 41.1272 -85.4114 286° West 166 191 6,100  Level Chicago Center
05:13PM 41.1389 -85.4717 284° West 167 192 6,100  Level Chicago Center
05:14PM 41.1525 -85.5314 287° West 169 194 6,100  Level Chicago Center
05:15PM 41.1661 -85.5908 287° West 169 194 6,100  Level Chicago Center
05:16PM 41.1775 -85.6503 284° West 167 192 6,100  Level Chicago Center
05:17PM 41.1925 -85.7211 286° West 167 192 6,100  Level Chicago Center
05:18PM 41.2047 -85.7811 285° West 167 192 6,100  Level Chicago Center
05:19PM 41.2181 -85.8403 287° West 167 192 6,100  Level Chicago Center
05:20PM 41.2319 -85.9056 286° West 168 193 6,100 -48 Level Chicago Center
05:22PM 41.2417 -85.9592 284° West 167 192 6,000  Descending Chicago Center
05:23PM 41.2556 -86.0194 287° West 167 192 6,100 48 Climbing Chicago Center
05:24PM 41.2669 -86.0792 284° West 168 193 6,100  Level Chicago Center
05:25PM 41.2831 -86.1514 287° West 169 194 6,100  Level Chicago Center
05:26PM 41.2942 -86.2119 284° West 168 193 6,100  Level Chicago Center
05:27PM 41.3078 -86.2725 287° West 170 196 6,100  Level Chicago Center
05:28PM 41.3192 -86.3331 284° West 170 196 6,100  Level Chicago Center
05:29PM 41.3319 -86.3933 286° West 170 196 6,100  Level Chicago Center
05:30PM 41.3436 -86.4553 284° West 171 197 6,100  Level Chicago Center
05:31PM 41.3581 -86.5281 285° West 171 197 6,100  Level Chicago Center
05:32PM 41.3697 -86.5892 284° West 170 196 6,100  Level Chicago Center
05:33PM 41.3831 -86.6489 287° West 170 196 6,100  Level Chicago Center
05:34PM 41.3975 -86.7169 286° West 170 196 6,100  Level Chicago Center
05:35PM 41.4111 -86.7775 287° West 170 196 6,100  Level Chicago Center
05:36PM 41.4231 -86.8439 284° West 172 198 6,100  Level Chicago Center